I69 weather

Clermont County Airport
Batavia, Ohio, United States

Public forecast

Using degrees Fahrenheit for public forecast. Weather courtesy of forecast.io.

Current aviation weather report (METAR) for Clermont County Airport

Retrieved 2019/10/21 01:38 UTC (10 minutes ago):

KI69 210138Z AUTO 17003KT 10SM CLR 16/14 A2997 RMK AO2 T01620142

Closest aviation forecast (TAF) to Clermont County Airport

Closest forecast is Cincinnati Municipal Airport Lunken Field, 9.8 nm (18.2 km) W. Retrieved 2019-10-21 00:42 UTC (1 hour ago):

TAF KLUK 202341Z 2100/2124 17004KT P6SM BKN200 FM211300 15010KT P6SM BKN080 FM211500 15011G21KT P6SM VCSH OVC050 FM212100 18016G26KT 5SM -SHRA OVC028